createdAt,value
2018-11-03T00:01:56.611Z,22.07
2018-11-03T00:04:32.645Z,22.93
2018-11-03T00:07:08.081Z,23.07
2018-11-03T00:09:44.174Z,22.97
2018-11-03T00:12:20.293Z,22.83
2018-11-03T00:14:56.224Z,23.90
2018-11-03T00:17:32.252Z,22.90
2018-11-03T00:20:08.650Z,22.17
2018-11-03T00:22:44.989Z,22.23
2018-11-03T00:25:20.934Z,20.30
2018-11-03T00:27:56.944Z,21.60
2018-11-03T00:30:32.868Z,18.43
2018-11-03T00:33:08.657Z,19.70
2018-11-03T00:35:44.579Z,18.60
2018-11-03T00:38:20.529Z,18.07
2018-11-03T00:40:56.584Z,17.80
2018-11-03T00:43:32.713Z,19.73
2018-11-03T00:46:08.973Z,20.13
2018-11-03T00:48:44.908Z,19.43
2018-11-03T00:51:21.008Z,18.93
2018-11-03T00:53:56.917Z,19.87
2018-11-03T00:56:32.879Z,20.37
2018-11-03T00:59:08.328Z,21.00
2018-11-03T01:01:44.237Z,19.10
2018-11-03T01:04:20.327Z,18.87
2018-11-03T01:06:56.257Z,21.17
2018-11-03T01:09:31.532Z,24.37
2018-11-03T01:12:07.384Z,21.30
2018-11-03T01:14:43.478Z,23.43
2018-11-03T01:17:19.406Z,24.37
2018-11-03T01:19:55.376Z,23.53
2018-11-03T01:22:31.349Z,26.53
2018-11-03T01:25:08.192Z,24.23
2018-11-03T01:27:44.134Z,27.83
2018-11-03T01:30:20.207Z,24.97
2018-11-03T01:32:56.149Z,24.90
2018-11-03T01:35:32.238Z,25.73
2018-11-03T01:38:08.231Z,23.73
2018-11-03T01:40:44.974Z,23.43
2018-11-03T01:43:20.904Z,24.23
2018-11-03T01:45:56.874Z,25.47
2018-11-03T01:48:32.888Z,27.07
2018-11-03T01:51:08.752Z,24.53
2018-11-03T01:53:44.599Z,25.27
2018-11-03T01:56:20.537Z,26.47
2018-11-03T01:58:56.439Z,24.13
2018-11-03T02:01:32.462Z,24.47
2018-11-03T02:04:08.925Z,23.47
2018-11-03T02:06:45.050Z,24.57
2018-11-03T02:09:21.033Z,25.07
2018-11-03T02:11:57.159Z,25.67
2018-11-03T02:14:33.231Z,25.00
2018-11-03T02:17:09.697Z,24.97
2018-11-03T02:19:45.653Z,28.37
2018-11-03T02:22:21.700Z,31.03
2018-11-03T02:24:57.807Z,27.90
2018-11-03T02:27:33.830Z,31.00
2018-11-03T02:30:10.831Z,29.67
2018-11-03T02:32:46.753Z,31.23
2018-11-03T02:35:22.929Z,28.10
2018-11-03T02:37:59.173Z,29.17
2018-11-03T02:40:35.223Z,28.57
2018-11-03T02:43:11.182Z,28.57
2018-11-03T02:45:47.233Z,29.83
2018-11-03T02:48:23.073Z,28.43
2018-11-03T02:50:59.115Z,30.50
2018-11-03T02:53:35.089Z,31.80
2018-11-03T02:56:11.156Z,32.47
2018-11-03T02:58:47.041Z,32.83
2018-11-03T03:01:22.396Z,32.23
2018-11-03T03:03:58.599Z,31.90
2018-11-03T03:06:34.527Z,32.13
2018-11-03T03:09:10.545Z,31.07
2018-11-03T03:11:46.691Z,32.27
2018-11-03T03:14:22.661Z,31.77
2018-11-03T03:16:58.736Z,30.10
2018-11-03T03:19:34.605Z,33.03
2018-11-03T03:22:10.613Z,32.07
2018-11-03T03:24:46.648Z,31.00
2018-11-03T03:27:22.524Z,31.53
2018-11-03T03:29:58.609Z,31.73
2018-11-03T03:32:34.750Z,35.43
2018-11-03T03:35:11.185Z,32.60
2018-11-03T03:37:46.997Z,30.97
2018-11-03T03:40:22.805Z,31.33
2018-11-03T03:42:58.777Z,30.47
2018-11-03T03:45:34.151Z,31.00
2018-11-03T03:48:10.252Z,32.77
2018-11-03T03:50:46.262Z,31.03
2018-11-03T03:53:22.282Z,28.00
2018-11-03T03:55:58.263Z,29.37
2018-11-03T03:58:34.215Z,30.17
2018-11-03T04:01:10.457Z,29.77
2018-11-03T04:03:46.425Z,29.13
2018-11-03T04:06:22.374Z,30.33
2018-11-03T04:08:58.241Z,31.23
2018-11-03T04:11:34.216Z,30.83
2018-11-03T04:14:10.377Z,30.30
2018-11-03T04:16:46.525Z,31.90
2018-11-03T04:19:21.844Z,32.33
2018-11-03T04:21:57.800Z,31.97
2018-11-03T04:24:33.732Z,31.67
2018-11-03T04:27:09.910Z,30.87
2018-11-03T04:29:45.951Z,29.27
2018-11-03T04:32:21.789Z,39.00
2018-11-03T04:34:57.577Z,30.03
2018-11-03T04:37:33.567Z,30.67
2018-11-03T04:40:11.492Z,31.37
2018-11-03T04:42:47.387Z,35.50
2018-11-03T04:45:23.667Z,34.90
2018-11-03T04:47:59.609Z,30.60
2018-11-03T04:50:35.548Z,29.80
2018-11-03T04:53:11.724Z,30.00
2018-11-03T04:55:47.820Z,29.57
2018-11-03T04:58:23.862Z,28.97
2018-11-03T05:01:00.313Z,30.60
2018-11-03T05:03:36.529Z,29.57
2018-11-03T05:06:12.416Z,29.33
2018-11-03T05:08:48.336Z,30.37
2018-11-03T05:11:24.320Z,33.90
2018-11-03T05:14:00.232Z,31.67
2018-11-03T05:16:36.343Z,30.43
2018-11-03T05:19:12.835Z,34.37
2018-11-03T05:21:48.738Z,33.20
2018-11-03T05:24:24.736Z,30.80
2018-11-03T05:27:00.650Z,31.97
2018-11-03T05:29:36.568Z,30.73
2018-11-03T05:32:12.409Z,31.57
2018-11-03T05:34:48.494Z,31.47
2018-11-03T05:37:24.409Z,33.30
2018-11-03T05:40:00.336Z,33.27
2018-11-03T05:42:36.218Z,33.70
2018-11-03T05:45:12.341Z,33.37
2018-11-03T05:47:48.316Z,33.73
2018-11-03T05:50:24.457Z,36.13
2018-11-03T05:53:00.332Z,34.30
2018-11-03T05:55:36.269Z,39.40
2018-11-03T05:58:12.269Z,35.23
2018-11-03T06:00:48.257Z,34.73
2018-11-03T06:03:24.107Z,34.80
2018-11-03T06:05:59.659Z,34.23
2018-11-03T06:08:35.801Z,34.20
2018-11-03T06:11:11.674Z,34.57
2018-11-03T06:13:47.705Z,33.90
2018-11-03T06:16:23.973Z,36.33
2018-11-03T06:18:59.995Z,37.40
2018-11-03T06:21:35.925Z,35.63
2018-11-03T06:24:12.033Z,35.00
2018-11-03T06:26:48.101Z,36.20
2018-11-03T06:29:24.101Z,34.37
2018-11-03T06:32:00.322Z,37.60
2018-11-03T06:34:36.201Z,35.20
2018-11-03T06:37:12.357Z,35.50
2018-11-03T06:39:48.459Z,35.27
2018-11-03T06:42:24.498Z,35.93
2018-11-03T06:45:00.396Z,38.60
2018-11-03T06:47:36.342Z,35.10
2018-11-03T06:50:11.590Z,34.43
2018-11-03T06:52:47.533Z,34.90
2018-11-03T06:55:23.608Z,32.30
2018-11-03T06:57:59.665Z,35.13
2018-11-03T07:00:35.762Z,33.63
2018-11-03T07:03:11.817Z,31.27
2018-11-03T07:05:47.816Z,33.60
2018-11-03T07:08:23.625Z,32.20
2018-11-03T07:10:59.727Z,32.20
2018-11-03T07:13:35.721Z,33.90
2018-11-03T07:16:11.534Z,31.83
2018-11-03T07:18:47.424Z,31.03
2018-11-03T07:21:23.798Z,31.80
2018-11-03T07:23:59.667Z,31.10
2018-11-03T07:26:35.767Z,30.37
2018-11-03T07:29:11.745Z,31.10
2018-11-03T07:31:47.653Z,30.30
2018-11-03T07:34:23.363Z,30.67
2018-11-03T07:36:59.485Z,30.23
2018-11-03T07:39:35.487Z,28.30
2018-11-03T07:42:11.451Z,28.80
2018-11-03T07:44:46.802Z,28.83
2018-11-03T07:47:22.976Z,27.17
2018-11-03T07:49:58.904Z,34.90
2018-11-03T07:52:34.748Z,25.33
2018-11-03T07:55:12.265Z,26.13
2018-11-03T07:57:48.191Z,22.97
2018-11-03T08:00:24.052Z,26.00
2018-11-03T08:02:59.923Z,25.53
2018-11-03T08:05:35.809Z,24.83
2018-11-03T08:08:11.327Z,24.70
2018-11-03T08:10:47.473Z,26.17
2018-11-03T08:13:23.312Z,27.37
2018-11-03T08:15:58.786Z,25.60
2018-11-03T08:18:34.815Z,25.40
2018-11-03T08:21:10.993Z,24.77
2018-11-03T08:23:46.966Z,24.83
2018-11-03T08:26:22.908Z,24.47
2018-11-03T08:28:58.877Z,26.60
2018-11-03T08:31:34.877Z,25.90
2018-11-03T08:34:10.832Z,24.77
2018-11-03T08:36:46.744Z,25.27
2018-11-03T08:39:22.803Z,23.27
2018-11-03T08:41:58.705Z,22.90
2018-11-03T08:44:34.432Z,23.70
2018-11-03T08:47:10.380Z,21.57
2018-11-03T08:49:46.117Z,22.50
2018-11-03T08:52:21.933Z,24.10
2018-11-03T08:54:57.873Z,21.53
2018-11-03T08:57:33.888Z,22.77
2018-11-03T09:00:11.938Z,22.87
2018-11-03T09:02:47.988Z,30.83
2018-11-03T09:05:29.179Z,36.37
2018-11-03T09:08:05.437Z,46.97
2018-11-03T09:10:41.197Z,34.07
2018-11-03T09:13:17.260Z,24.43
2018-11-03T09:15:53.188Z,23.13
2018-11-03T09:18:28.720Z,23.90
2018-11-03T09:21:04.844Z,23.07
2018-11-03T09:23:40.752Z,22.33
2018-11-03T09:26:16.764Z,21.20
2018-11-03T09:28:52.107Z,19.47
2018-11-03T09:31:28.172Z,20.27
2018-11-03T09:34:04.420Z,21.70
2018-11-03T09:36:40.249Z,19.07
2018-11-03T09:39:16.777Z,21.97
2018-11-03T09:41:52.958Z,17.27
2018-11-03T09:44:28.976Z,20.07
2018-11-03T09:47:05.233Z,32.43
2018-11-03T09:49:41.175Z,26.93
2018-11-03T09:52:17.044Z,23.37
2018-11-03T09:54:52.997Z,21.87
2018-11-03T09:57:29.333Z,18.43
2018-11-03T10:00:05.839Z,18.63
2018-11-03T10:02:42.017Z,19.27
2018-11-03T10:05:18.196Z,18.10
2018-11-03T10:07:53.982Z,18.27
2018-11-03T10:10:29.535Z,21.60
2018-11-03T10:13:05.652Z,19.17
2018-11-03T10:15:41.833Z,21.07
2018-11-03T10:18:17.909Z,23.17
2018-11-03T10:20:54.095Z,31.00
2018-11-03T10:23:30.093Z,39.13
2018-11-03T10:26:05.470Z,36.93
2018-11-03T10:28:41.419Z,22.33
2018-11-03T10:31:17.733Z,24.00
2018-11-03T10:33:53.728Z,46.97
2018-11-03T10:36:29.927Z,29.10
2018-11-03T10:39:08.960Z,29.33
2018-11-03T10:41:44.978Z,20.40
2018-11-03T10:44:21.186Z,20.57
2018-11-03T10:46:57.343Z,20.63
2018-11-03T10:49:33.420Z,19.23
2018-11-03T10:52:09.668Z,16.07
2018-11-03T10:54:45.644Z,17.67
2018-11-03T10:57:21.544Z,20.10
2018-11-03T10:59:57.677Z,21.73
2018-11-03T11:02:38.604Z,18.77
2018-11-03T11:05:19.520Z,15.87
2018-11-03T11:08:00.655Z,18.97
2018-11-03T11:10:41.833Z,15.07
2018-11-03T11:13:24.409Z,16.13
2018-11-03T11:16:00.528Z,19.40
2018-11-03T11:18:36.432Z,20.70
2018-11-03T11:21:12.512Z,18.83
2018-11-03T11:23:48.747Z,24.97
2018-11-03T11:26:24.806Z,19.70
2018-11-03T11:29:00.687Z,22.17
2018-11-03T11:31:36.723Z,15.77
2018-11-03T11:34:12.808Z,18.40
2018-11-03T11:36:48.641Z,18.17
2018-11-03T11:39:24.532Z,18.80
2018-11-03T11:42:00.639Z,18.07
2018-11-03T11:44:36.633Z,17.67
2018-11-03T11:47:12.674Z,16.00
2018-11-03T11:49:48.689Z,14.93
2018-11-03T11:52:24.742Z,14.70
2018-11-03T11:55:01.053Z,15.73
2018-11-03T11:57:36.972Z,14.03
2018-11-03T12:00:13.373Z,12.67
2018-11-03T12:02:49.470Z,11.40
2018-11-03T12:05:26.292Z,12.43
2018-11-03T12:08:02.124Z,12.20
2018-11-03T12:10:38.083Z,12.67
2018-11-03T12:13:52.973Z,12.87
2018-11-03T12:16:28.370Z,11.80
2018-11-03T12:19:04.581Z,13.83
2018-11-03T12:21:40.539Z,12.80
2018-11-03T12:24:16.493Z,14.50
2018-11-03T12:26:52.704Z,14.63
2018-11-03T12:30:10.566Z,12.93
2018-11-03T12:32:46.705Z,30.03
2018-11-03T12:35:22.636Z,13.70
2018-11-03T12:37:58.509Z,11.33
2018-11-03T12:40:34.555Z,11.20
2018-11-03T12:43:10.451Z,11.27
2018-11-03T12:45:46.330Z,11.50
2018-11-03T12:48:22.599Z,10.47
2018-11-03T12:50:58.685Z,10.77
2018-11-03T12:53:34.613Z,11.13
2018-11-03T12:56:10.725Z,11.70
2018-11-03T12:58:46.656Z,11.87
2018-11-03T13:01:22.012Z,14.73
2018-11-03T13:03:57.879Z,9.90
2018-11-03T13:06:33.724Z,11.73
2018-11-03T13:09:11.182Z,12.23
2018-11-03T13:11:46.263Z,11.73
2018-11-03T13:14:22.165Z,12.73
2018-11-03T13:16:58.297Z,11.93
2018-11-03T13:19:34.299Z,10.73
2018-11-03T13:22:10.078Z,12.90
2018-11-03T13:24:46.192Z,13.80
2018-11-03T13:27:22.212Z,11.37
2018-11-03T13:29:57.407Z,12.00
2018-11-03T13:32:33.286Z,12.17
2018-11-03T13:35:10.128Z,12.60
2018-11-03T13:37:46.115Z,12.47
2018-11-03T13:40:22.140Z,12.80
2018-11-03T13:42:58.280Z,19.80
2018-11-03T13:45:34.327Z,23.00
2018-11-03T13:48:10.377Z,41.23
2018-11-03T13:50:46.376Z,31.23
2018-11-03T13:53:21.727Z,17.73
2018-11-03T13:55:57.858Z,14.47
2018-11-03T13:58:33.815Z,13.80
2018-11-03T14:01:09.685Z,13.43
2018-11-03T14:03:46.048Z,13.77
2018-11-03T14:06:21.336Z,14.33
2018-11-03T14:08:57.208Z,16.03
2018-11-03T14:11:33.573Z,15.43
2018-11-03T14:14:09.541Z,16.17
2018-11-03T14:16:45.553Z,26.63
2018-11-03T14:19:21.455Z,57.40
2018-11-03T14:21:57.242Z,39.00
2018-11-03T14:24:33.198Z,34.30
2018-11-03T14:27:09.696Z,24.93
2018-11-03T14:29:45.768Z,21.53
2018-11-03T14:32:21.783Z,21.87
2018-11-03T14:34:57.286Z,26.67
2018-11-03T14:37:33.901Z,29.97
2018-11-03T14:40:12.237Z,25.27
2018-11-03T14:42:48.493Z,27.63
2018-11-03T14:45:24.306Z,20.07
2018-11-03T14:48:00.175Z,23.43
2018-11-03T14:50:36.241Z,21.10
2018-11-03T14:53:11.667Z,25.30
2018-11-03T14:55:47.482Z,26.90
2018-11-03T14:58:23.401Z,25.30
2018-11-03T15:00:59.657Z,16.63
2018-11-03T15:03:35.511Z,22.33
2018-11-03T15:06:11.721Z,23.83
2018-11-03T15:08:47.215Z,31.03
2018-11-03T15:11:23.073Z,51.90
2018-11-03T15:13:59.503Z,45.47
2018-11-03T15:16:35.349Z,31.77
2018-11-03T15:19:11.427Z,28.70
2018-11-03T15:21:47.322Z,23.70
2018-11-03T15:24:23.232Z,27.40
2018-11-03T15:26:58.703Z,30.83
2018-11-03T15:29:34.687Z,34.20
2018-11-03T15:32:10.711Z,25.40
2018-11-03T15:34:47.631Z,25.50
2018-11-03T15:37:23.505Z,24.33
2018-11-03T15:39:59.609Z,24.60
2018-11-03T15:42:35.403Z,22.77
2018-11-03T15:45:15.747Z,22.50
2018-11-03T15:47:51.679Z,25.40
2018-11-03T15:50:28.245Z,30.93
2018-11-03T15:53:03.869Z,60.40
2018-11-03T15:55:39.217Z,48.13
2018-11-03T15:58:15.615Z,58.20
2018-11-03T16:00:52.013Z,38.13
2018-11-03T16:03:27.923Z,30.53
2018-11-03T16:06:03.885Z,29.13
2018-11-03T16:08:39.925Z,30.00
2018-11-03T16:11:16.099Z,32.20
2018-11-03T16:13:52.239Z,29.93
2018-11-03T16:16:28.711Z,24.07
2018-11-03T16:19:05.043Z,25.27
2018-11-03T16:21:41.482Z,23.97
2018-11-03T16:24:18.124Z,26.57
2018-11-03T16:26:54.631Z,26.83
2018-11-03T16:29:30.866Z,28.33
2018-11-03T16:32:06.996Z,28.73
2018-11-03T16:34:43.271Z,29.87
2018-11-03T16:37:19.118Z,26.67
2018-11-03T16:39:59.319Z,24.93
2018-11-03T16:42:36.602Z,27.30
2018-11-03T16:45:14.268Z,28.53
2018-11-03T16:47:50.225Z,36.50
2018-11-03T16:50:26.727Z,36.43
2018-11-03T16:53:03.221Z,34.20
2018-11-03T16:55:39.729Z,34.00
2018-11-03T16:58:16.103Z,34.37
2018-11-03T17:00:52.273Z,35.07
2018-11-03T17:03:28.476Z,35.50
2018-11-03T17:06:04.904Z,37.10
2018-11-03T17:08:41.029Z,35.03
2018-11-03T17:11:16.993Z,32.87
2018-11-03T17:13:54.157Z,33.10
2018-11-03T17:16:30.458Z,29.87
2018-11-03T17:19:06.593Z,30.57
2018-11-03T17:21:43.000Z,45.70
2018-11-03T17:24:30.669Z,40.63
2018-11-03T17:27:07.132Z,42.20
2018-11-03T17:42:42.852Z,40.23
2018-11-03T17:45:19.097Z,34.87
2018-11-03T17:47:55.351Z,35.23
2018-11-03T17:50:31.701Z,34.53
2018-11-03T17:53:07.860Z,34.83
2018-11-03T17:55:43.922Z,30.23
2018-11-03T17:58:20.146Z,35.10
2018-11-03T18:00:56.280Z,37.07
2018-11-03T18:03:32.348Z,44.77
2018-11-03T18:06:08.584Z,55.53
2018-11-03T18:08:45.765Z,50.97
2018-11-03T18:11:21.818Z,46.20
2018-11-03T18:13:57.985Z,42.10
2018-11-03T18:16:33.811Z,41.80
2018-11-03T18:19:09.402Z,34.83
2018-11-03T18:21:45.454Z,31.43
2018-11-03T18:24:21.093Z,31.63
2018-11-03T18:26:57.473Z,31.43
2018-11-03T18:29:33.769Z,31.27
2018-11-03T18:32:10.230Z,33.03
2018-11-03T18:34:46.103Z,31.27
2018-11-03T18:37:23.589Z,30.60
2018-11-03T18:40:00.275Z,34.27
2018-11-03T18:42:36.905Z,38.03
2018-11-03T18:45:13.345Z,33.47
2018-11-03T18:47:49.726Z,32.13
2018-11-03T18:50:26.580Z,33.00
2018-11-03T18:53:03.905Z,37.23
2018-11-03T18:55:40.687Z,37.63
2018-11-03T18:58:17.833Z,35.10
2018-11-03T19:00:54.313Z,39.43
2018-11-03T19:03:30.877Z,41.90
2018-11-03T19:06:07.458Z,42.67
2018-11-03T19:08:44.025Z,41.50
2018-11-03T19:11:20.304Z,42.00
2018-11-03T19:13:57.304Z,40.70
2018-11-03T19:16:56.081Z,43.50
2018-11-03T19:19:50.930Z,41.90
2018-11-03T19:22:31.532Z,43.30
2018-11-03T19:25:32.261Z,42.47
2018-11-03T19:28:08.558Z,41.97
2018-11-03T19:30:44.630Z,40.10
2018-11-03T19:33:37.807Z,43.03
2018-11-03T19:36:35.619Z,41.47
2018-11-03T19:39:34.683Z,38.83
2018-11-03T19:42:31.592Z,40.30
2018-11-03T19:45:30.800Z,40.13
2018-11-03T19:48:29.049Z,38.83
2018-11-03T19:51:28.423Z,39.40
2018-11-03T19:54:27.990Z,38.57
2018-11-03T19:57:27.899Z,40.13
2018-11-03T20:00:27.757Z,39.77
2018-11-03T20:03:27.464Z,41.17
2018-11-03T20:06:30.498Z,41.53
2018-11-03T20:09:30.313Z,40.67
2018-11-03T20:12:08.030Z,41.23
2018-11-03T20:14:43.667Z,40.07
2018-11-03T20:17:21.141Z,41.53
2018-11-03T20:19:59.126Z,42.30
2018-11-03T20:22:36.003Z,44.67
2018-11-03T20:25:13.757Z,39.87
2018-11-03T20:27:51.483Z,40.43
2018-11-03T20:30:29.741Z,42.63
2018-11-03T20:33:06.592Z,40.80
2018-11-03T20:35:43.999Z,42.83
2018-11-03T20:38:21.725Z,41.07
2018-11-03T20:40:59.139Z,38.93
2018-11-03T20:43:37.414Z,41.37
2018-11-03T20:46:15.283Z,42.33
2018-11-03T20:48:53.729Z,41.70
2018-11-03T20:51:30.630Z,41.97
2018-11-03T20:54:06.661Z,39.87
2018-11-03T20:56:43.340Z,41.40
2018-11-03T20:59:20.325Z,43.90
2018-11-03T21:01:57.882Z,43.03
2018-11-03T21:04:35.011Z,43.13
2018-11-03T21:07:11.953Z,42.67
2018-11-03T21:09:48.886Z,42.23
2018-11-03T21:12:25.977Z,42.83
2018-11-03T21:15:02.897Z,42.37
2018-11-03T21:17:40.186Z,39.47
2018-11-03T21:20:17.295Z,42.40
2018-11-03T21:22:54.207Z,41.43
2018-11-03T21:25:30.092Z,40.53
2018-11-03T21:28:06.576Z,42.90
2018-11-03T21:30:42.563Z,41.53
2018-11-03T21:33:18.873Z,42.53
2018-11-03T21:35:54.878Z,39.63
2018-11-03T21:38:31.475Z,37.47
2018-11-03T21:41:07.903Z,40.50
2018-11-03T21:43:44.062Z,36.97
2018-11-03T21:46:20.197Z,39.87
2018-11-03T21:48:56.347Z,37.07
2018-11-03T21:51:32.784Z,37.37
2018-11-03T21:54:08.176Z,39.13
2018-11-03T21:56:44.180Z,35.03
2018-11-03T21:59:20.168Z,39.07
2018-11-03T22:01:56.177Z,39.50
2018-11-03T22:04:32.036Z,37.40
2018-11-03T22:07:07.359Z,36.90
2018-11-03T22:09:43.197Z,37.03
2018-11-03T22:12:18.518Z,37.97
2018-11-03T22:14:54.325Z,37.93
2018-11-03T22:17:29.986Z,36.90
2018-11-03T22:20:06.204Z,38.23
2018-11-03T22:22:42.487Z,37.73
2018-11-03T22:25:18.384Z,33.17
2018-11-03T22:27:54.510Z,36.37
2018-11-03T22:30:30.565Z,34.67
2018-11-03T22:33:06.862Z,35.63
2018-11-03T22:35:43.058Z,33.73
2018-11-03T22:38:19.070Z,35.07
2018-11-03T22:40:55.269Z,35.93
2018-11-03T22:43:31.178Z,35.73
2018-11-03T22:46:07.336Z,36.83
2018-11-03T22:48:43.325Z,33.70
2018-11-03T22:51:19.571Z,36.53
2018-11-03T22:53:55.865Z,33.53
2018-11-03T22:56:31.885Z,37.20
2018-11-03T22:59:07.994Z,38.30
2018-11-03T23:01:43.930Z,37.07
2018-11-03T23:04:20.065Z,35.83
2018-11-03T23:06:56.133Z,36.30
2018-11-03T23:09:32.178Z,35.80
2018-11-03T23:12:08.292Z,34.63
2018-11-03T23:14:44.316Z,34.57
2018-11-03T23:17:20.332Z,33.80
2018-11-03T23:19:56.401Z,34.87
2018-11-03T23:22:32.769Z,36.87
2018-11-03T23:25:09.371Z,33.90
2018-11-03T23:27:45.441Z,34.13
2018-11-03T23:30:21.768Z,34.07
2018-11-03T23:32:57.849Z,37.57
2018-11-03T23:35:33.148Z,34.93
2018-11-03T23:38:09.201Z,34.53
2018-11-03T23:40:45.242Z,32.97
2018-11-03T23:43:21.429Z,32.30
2018-11-03T23:45:57.297Z,33.60
2018-11-03T23:48:33.446Z,35.17
2018-11-03T23:51:09.292Z,34.57
2018-11-03T23:53:45.268Z,35.10
2018-11-03T23:56:21.537Z,33.43
2018-11-03T23:58:57.508Z,33.70
